Time;durP1;ratioP1;P1;durP2;ratioP2;P2;SDS_P1;SDS_P2;PMS_P1;PMS_P2;Temp;Humidity;BMP_temperature;BMP_pressure;BME280_temperature;BME280_humidity;BME280_pressure;Samples;Min_cycle;Max_cycle;Signal;HPM_P1;HPM_P2
2022/11/01 00:00:48;;;;;;;2.17;1.40;;;;;;;6.27;87.32;95294.97;6173206;28;20063;-66
2022/11/01 00:03:51;;;;;;;3.17;1.90;;;;;;;6.13;87.76;95304.75;6162956;28;20058;-66
2022/11/01 00:06:53;;;;;;;2.17;1.80;;;;;;;6.08;87.91;95305.06;6155592;28;20596;-66
2022/11/01 00:09:54;;;;;;;2.47;2.05;;;;;;;5.96;88.20;95298.13;6158327;28;20050;-67
2022/11/01 00:12:56;;;;;;;1.70;1.60;;;;;;;5.92;88.11;95294.06;6150906;28;20053;-67
2022/11/01 00:15:58;;;;;;;2.05;1.50;;;;;;;5.96;88.29;95295.53;6159258;28;20034;-67
2022/11/01 00:19:05;;;;;;;1.67;1.17;;;;;;;5.81;88.04;95295.66;6147995;28;20100;-66
2022/11/01 00:22:07;;;;;;;;;;;;;;;5.84;88.07;95298.03;6153826;28;20142;-66
2022/11/01 00:25:10;;;;;;;2.08;1.10;;;;;;;5.67;88.38;95295.78;6221078;28;19925;-67
2022/11/01 00:28:14;;;;;;;1.02;0.70;;;;;;;5.52;88.61;95297.72;6158659;28;20120;-67
2022/11/01 00:31:17;;;;;;;0.38;0.35;;;;;;;5.66;88.74;95291.50;6159167;28;20451;-66
2022/11/01 00:34:20;;;;;;;1.17;0.82;;;;;;;5.56;88.22;95293.09;6154789;28;20832;-67
2022/11/01 00:37:29;;;;;;;1.17;0.93;;;;;;;5.57;88.58;95297.38;6163158;28;20492;-67
2022/11/01 00:40:32;;;;;;;1.05;0.52;;;;;;;5.52;88.57;95286.41;6165981;28;20051;-66
2022/11/01 00:43:35;;;;;;;0.68;0.68;;;;;;;5.51;88.77;95293.41;6151540;28;20057;-67
2022/11/01 00:46:39;;;;;;;0.88;0.70;;;;;;;5.51;88.73;95295.19;6151201;28;20501;-66
2022/11/01 00:49:42;;;;;;;0.98;0.50;;;;;;;5.52;88.17;95297.72;6151484;28;20401;-67
2022/11/01 00:52:46;;;;;;;1.70;0.95;;;;;;;5.55;88.37;95301.88;6210177;28;20412;-67
2022/11/01 00:55:50;;;;;;;1.95;1.27;;;;;;;5.55;88.93;95304.50;6148434;28;20038;-68
2022/11/01 00:58:51;;;;;;;2.97;2.17;;;;;;;5.60;88.94;95294.53;6156451;28;20174;-66
2022/11/01 01:01:53;;;;;;;4.28;2.70;;;;;;;5.71;89.33;95293.78;6152363;28;20058;-67
2022/11/01 01:04:57;;;;;;;5.28;3.50;;;;;;;5.81;89.50;95293.03;6152490;28;20412;-67
2022/11/01 01:08:01;;;;;;;6.30;4.32;;;;;;;5.91;89.48;95295.81;6159520;28;20039;-68
2022/11/01 01:11:09;;;;;;;5.57;4.72;;;;;;;5.99;89.53;95300.53;6154161;28;20042;-68
2022/11/01 01:14:11;;;;;;;7.82;5.88;;;;;;;6.06;89.37;95286.09;6155362;28;20167;-67
2022/11/01 01:17:13;;;;;;;5.75;4.43;;;;;;;6.16;89.44;95297.53;6154381;28;20055;-67
2022/11/01 01:20:20;;;;;;;7.47;5.28;;;;;;;6.17;89.37;95299.22;6153071;28;22090;-68
2022/11/01 01:23:22;;;;;;;8.30;5.18;;;;;;;6.23;89.74;95303.97;6163489;28;20155;-67
2022/11/01 01:26:23;;;;;;;7.15;4.20;;;;;;;6.33;88.96;95298.09;6141771;28;20050;-67
2022/11/01 01:29:25;;;;;;;7.88;5.40;;;;;;;6.29;89.23;95297.47;6175701;28;20149;-66
2022/11/01 01:32:28;;;;;;;;;;;;;;;6.40;88.64;95287.06;6183946;28;20555;-66
2022/11/01 01:35:36;;;;;;;6.10;4.07;;;;;;;6.12;89.13;95279.59;6185348;28;20308;-68
2022/11/01 01:38:40;;;;;;;5.82;4.30;;;;;;;6.13;89.58;95281.25;6186091;28;20054;-68
2022/11/01 01:41:56;;;;;;;4.75;4.15;;;;;;;6.12;89.53;95269.16;6186372;28;20504;-68
2022/11/01 01:44:58;;;;;;;7.60;3.97;;;;;;;6.07;89.25;95266.88;6184945;28;20056;-68
2022/11/01 01:48:20;;;;;;;5.85;4.22;;;;;;;6.15;89.34;95264.53;6174819;28;20471;-68
2022/11/01 01:51:27;;;;;;;4.85;3.47;;;;;;;6.08;89.14;95268.53;6229936;28;20158;-68
2022/11/01 01:54:37;;;;;;;5.65;5.00;;;;;;;6.08;89.04;95271.13;6163474;28;20845;-68
2022/11/01 01:57:42;;;;;;;5.10;4.13;;;;;;;6.15;89.04;95267.13;6157910;28;20046;-69
2022/11/01 02:00:47;;;;;;;4.78;3.78;;;;;;;6.06;88.79;95270.44;6161405;28;20087;-69
2022/11/01 02:03:49;;;;;;;5.47;4.32;;;;;;;5.93;88.73;95260.03;6168708;28;21077;-69
2022/11/01 02:06:56;;;;;;;5.30;4.00;;;;;;;6.01;88.65;95262.09;6180066;28;21638;-69
2022/11/01 02:09:59;;;;;;;4.07;3.05;;;;;;;5.91;88.67;95263.66;6170729;28;20045;-68
2022/11/01 02:13:01;;;;;;;3.70;3.28;;;;;;;6.03;88.07;95262.81;6172606;28;20054;-68
2022/11/01 02:16:21;;;;;;;3.08;2.78;;;;;;;5.93;88.39;95275.69;6170530;28;22088;-69
2022/11/01 02:19:53;;;;;;;4.10;2.13;;;;;;;5.87;88.38;95270.88;6176608;28;20103;-69
2022/11/01 02:23:13;;;;;;;3.00;2.00;;;;;;;5.83;88.66;95278.09;6175622;28;20060;-70
2022/11/01 02:26:42;;;;;;;2.78;2.47;;;;;;;5.81;88.32;95274.75;6190532;28;20039;-70
2022/11/01 02:30:06;;;;;;;2.55;2.20;;;;;;;5.81;88.83;95285.22;6172254;28;20746;-69
2022/11/01 02:33:19;;;;;;;4.28;3.13;;;;;;;5.91;88.96;95287.16;6181085;28;20046;-69
2022/11/01 02:36:46;;;;;;;2.30;2.05;;;;;;;5.98;88.19;95293.66;6172601;28;20697;-70
2022/11/01 02:39:55;;;;;;;4.07;3.03;;;;;;;5.82;88.43;95289.47;6166440;28;20188;-69
2022/11/01 02:43:02;;;;;;;3.35;2.63;;;;;;;5.92;87.89;95299.28;6188649;28;20058;-69
2022/11/01 02:49:42;;;;;;;4.03;3.22;;;;;;;5.87;88.35;95283.94;6189364;28;20057;-69
2022/11/01 02:52:50;;;;;;;3.22;2.92;;;;;;;5.80;88.76;95288.78;6207201;28;20512;-71
2022/11/01 02:55:54;;;;;;;2.97;2.70;;;;;;;5.78;88.73;95292.44;6188223;28;20053;-71
2022/11/01 02:59:00;;;;;;;3.90;2.70;;;;;;;5.78;88.74;95303.69;6163040;28;20643;-71
2022/11/01 03:02:12;;;;;;;3.50;2.65;;;;;;;5.82;88.28;95297.31;6195548;28;20055;-70
2022/11/01 03:05:48;;;;;;;2.65;1.52;;;;;;;5.89;87.90;95307.31;6258399;28;20079;-70
2022/11/01 03:08:59;;;;;;;2.75;2.08;;;;;;;5.71;88.07;95306.84;6239120;28;20051;-70
2022/11/01 03:12:03;;;;;;;1.67;1.33;;;;;;;5.79;88.56;95314.97;6260807;28;20056;-71
2022/11/01 03:15:25;;;;;;;4.10;2.08;;;;;;;5.76;88.05;95318.63;6254949;28;20040;-70
2022/11/01 03:18:38;;;;;;;2.15;1.80;;;;;;;5.69;88.22;95314.78;6266991;28;20053;-70
2022/11/01 03:22:02;;;;;;;;;;;;;;;5.93;87.45;95301.78;6255881;28;20147;-69
2022/11/01 03:25:39;;;;;;;2.58;2.10;;;;;;;5.73;87.89;95311.00;6260243;28;20422;-71
2022/11/01 03:28:56;;;;;;;2.47;1.65;;;;;;;5.73;87.67;95299.75;6250867;28;20052;-71
2022/11/01 03:32:01;;;;;;;2.38;1.73;;;;;;;5.80;87.49;95290.53;6249810;28;20044;-71
2022/11/01 03:35:14;;;;;;;2.25;1.42;;;;;;;5.76;87.40;95269.03;6253018;28;20043;-71
2022/11/01 03:38:24;;;;;;;3.15;2.13;;;;;;;5.75;87.25;95267.38;6270455;28;20450;-71
2022/11/01 03:41:37;;;;;;;2.03;1.80;;;;;;;5.59;87.79;95264.19;6257623;28;20046;-71
2022/11/01 03:44:46;;;;;;;2.50;2.30;;;;;;;5.57;87.98;95273.88;6279100;28;20043;-70
2022/11/01 03:47:48;;;;;;;2.50;1.90;;;;;;;5.62;88.02;95277.00;6292027;28;20460;-70
2022/11/01 03:50:58;;;;;;;2.25;1.70;;;;;;;5.64;87.82;95288.19;6289313;28;20112;-70
2022/11/01 03:54:09;;;;;;;2.40;1.65;;;;;;;5.71;88.02;95281.56;6290068;28;20117;-71
2022/11/01 03:57:13;;;;;;;2.50;1.98;;;;;;;5.74;87.89;95297.00;6272967;28;20055;-70
2022/11/01 04:00:20;;;;;;;1.80;1.60;;;;;;;5.78;87.33;95293.25;6278722;28;20032;-70
2022/11/01 04:03:24;;;;;;;2.20;1.98;;;;;;;5.72;87.47;95292.84;6206979;28;20516;-71
2022/11/01 04:06:26;;;;;;;1.70;1.48;;;;;;;5.82;87.42;95281.63;6169706;28;20049;-69
2022/11/01 04:09:32;;;;;;;2.08;1.73;;;;;;;5.93;86.52;95295.72;6169863;28;20046;-69
2022/11/01 04:12:39;;;;;;;1.80;1.50;;;;;;;5.78;87.29;95272.38;6166610;28;20611;-68
2022/11/01 04:22:48;;;;;;;5.55;2.58;;;;;;;5.84;88.17;95256.28;6192205;28;20116;-70
2022/11/01 04:26:00;;;;;;;2.22;1.70;;;;;;;5.99;88.42;95266.59;6146055;28;20061;-68
2022/11/01 04:29:04;;;;;;;4.35;2.35;;;;;;;5.97;88.25;95286.72;6164934;28;20134;-70
2022/11/01 04:32:09;;;;;;;2.90;2.28;;;;;;;6.04;87.93;95293.19;6168094;28;20046;-68
2022/11/01 04:35:17;;;;;;;2.78;2.40;;;;;;;6.02;87.62;95295.06;6162706;28;20095;-68
2022/11/01 04:38:22;;;;;;;2.35;1.85;;;;;;;6.01;87.49;95299.47;6166138;28;20499;-67
2022/11/01 04:41:31;;;;;;;;;;;;;;;6.08;86.08;95303.28;6164981;28;20451;-67
2022/11/01 04:44:34;;;;;;;3.20;2.30;;;;;;;5.98;85.86;95299.69;6161092;28;19969;-68
2022/11/01 04:47:49;;;;;;;;;;;;;;;6.13;85.78;95305.59;6170157;28;20039;-67
2022/11/01 04:50:55;;;;;;;1.77;1.67;;;;;;;5.90;85.82;95296.75;6171202;28;19922;-68
2022/11/01 04:53:59;;;;;;;2.20;1.73;;;;;;;5.93;86.31;95290.50;6174396;28;20413;-67
2022/11/01 04:57:03;;;;;;;;;;;;;;;6.08;86.56;95294.63;6168679;28;20048;-68
2022/11/01 05:00:06;;;;;;;2.38;1.95;;;;;;;5.99;85.55;95290.06;6179830;28;20380;-68
2022/11/01 05:03:14;;;;;;;2.00;1.80;;;;;;;5.82;86.27;95291.25;6170069;28;20050;-67
2022/11/01 05:06:20;;;;;;;2.08;1.60;;;;;;;5.92;86.14;95291.44;6175510;28;20039;-68
2022/11/01 05:09:27;;;;;;;2.53;2.03;;;;;;;5.81;86.27;95287.81;6184146;28;20039;-68
2022/11/01 05:12:32;;;;;;;1.90;1.50;;;;;;;5.83;86.47;95275.50;6164312;28;20034;-67
2022/11/01 05:15:36;;;;;;;;;;;;;;;6.13;85.68;95278.63;6166722;28;20047;-70
2022/11/01 05:18:42;;;;;;;2.80;2.13;;;;;;;5.98;85.90;95270.16;6140108;28;20530;-68
2022/11/01 05:21:46;;;;;;;2.53;2.05;;;;;;;6.09;86.06;95275.44;6145194;28;20050;-66
2022/11/01 05:24:52;;;;;;;;;;;;;;;6.15;85.14;95264.53;6162281;28;20050;-68
2022/11/01 05:28:06;;;;;;;2.30;1.48;;;;;;;6.04;85.44;95254.84;6157058;28;19925;-68
2022/11/01 05:31:11;;;;;;;1.60;1.50;;;;;;;6.17;84.87;95241.75;6153376;28;20501;-67
2022/11/01 05:34:18;;;;;;;2.00;1.88;;;;;;;6.19;85.32;95239.00;6151492;28;21937;-67
2022/11/01 05:37:23;;;;;;;2.95;2.03;;;;;;;6.27;85.38;95229.66;6149755;28;20034;-67
2022/11/01 05:40:28;;;;;;;2.05;1.58;;;;;;;6.21;86.22;95221.47;6159499;28;20046;-67
2022/11/01 05:43:34;;;;;;;2.33;2.13;;;;;;;6.24;86.50;95216.84;6140909;28;20050;-70
2022/11/01 05:46:39;;;;;;;2.90;2.60;;;;;;;6.30;86.88;95213.75;6154817;28;21261;-67
2022/11/01 05:49:49;;;;;;;3.08;2.35;;;;;;;6.34;86.46;95205.69;6156889;28;20054;-67
2022/11/01 05:52:53;;;;;;;2.90;2.45;;;;;;;6.33;86.98;95210.09;6151372;28;20428;-68
2022/11/01 05:56:05;;;;;;;2.78;2.47;;;;;;;6.43;87.39;95215.47;6154142;28;20728;-67
2022/11/01 05:59:12;;;;;;;2.28;2.00;;;;;;;6.55;86.46;95214.53;6176384;28;20038;-67
2022/11/01 06:02:17;;;;;;;2.28;2.03;;;;;;;6.49;86.86;95200.16;6180004;28;20092;-67
2022/11/01 06:05:25;;;;;;;2.83;2.13;;;;;;;6.59;87.20;95194.25;6190728;28;20038;-68
2022/11/01 06:08:30;;;;;;;3.35;2.60;;;;;;;6.71;86.96;95183.69;6188939;28;20043;-67
2022/11/01 06:11:55;;;;;;;;;;;;;;;6.91;86.23;95184.78;6183026;28;20050;-68
2022/11/01 06:14:57;;;;;;;1.70;1.23;;;;;;;6.94;85.89;95181.09;6183287;28;19921;-68
2022/11/01 06:18:04;;;;;;;2.73;2.40;;;;;;;6.86;86.43;95180.84;6169426;28;20039;-67
2022/11/01 06:21:09;;;;;;;2.67;2.22;;;;;;;6.91;86.30;95171.69;6175790;28;20158;-68
2022/11/01 06:24:12;;;;;;;2.85;2.35;;;;;;;6.91;87.02;95169.09;6186990;28;20073;-68
2022/11/01 06:27:17;;;;;;;2.20;1.90;;;;;;;7.07;86.20;95165.25;6183001;28;20452;-71
2022/11/01 06:30:20;;;;;;;4.25;2.88;;;;;;;7.10;86.67;95157.19;6165632;28;21027;-68
2022/11/01 06:33:24;;;;;;;5.47;3.78;;;;;;;7.14;86.46;95145.53;6174960;28;20701;-68
2022/11/01 06:36:28;;;;;;;;;;;;;;;7.36;86.08;95147.25;6173509;28;20097;-71
2022/11/01 06:39:31;;;;;;;6.00;4.20;;;;;;;7.26;86.55;95143.72;6208511;28;19917;-72
2022/11/01 06:42:35;;;;;;;7.65;3.92;;;;;;;7.26;87.04;95146.34;6186628;28;20038;-73
2022/11/01 06:45:37;;;;;;;;;;;;;;;7.45;87.17;95136.09;6205594;28;20038;-73
2022/11/01 06:48:41;;;;;;;3.15;2.40;;;;;;;7.36;86.86;95148.13;6181277;28;19926;-73
2022/11/01 06:51:46;;;;;;;4.40;2.67;;;;;;;7.27;87.83;95146.22;6210012;28;20136;-75
2022/11/01 06:54:51;;;;;;;3.10;2.40;;;;;;;7.25;88.29;95139.47;6191513;28;20041;-73
2022/11/01 06:58:04;;;;;;;3.15;1.80;;;;;;;7.31;88.55;95129.34;6190152;28;20034;-74
2022/11/01 07:01:08;;;;;;;3.20;2.28;;;;;;;7.41;88.09;95134.66;6186190;28;20049;-74
2022/11/01 07:04:11;;;;;;;;;;;;;;;7.46;88.09;95129.88;6201650;28;20103;-72
2022/11/01 07:07:14;;;;;;;2.50;2.17;;;;;;;7.25;88.57;95118.53;6262411;28;19950;-72
2022/11/01 07:10:18;;;;;;;;;;;;;;;7.48;88.11;95128.00;6179325;28;20598;-72
2022/11/01 07:13:24;;;;;;;2.13;1.38;;;;;;;7.36;87.85;95115.88;6180740;28;19918;-73
2022/11/01 07:16:28;;;;;;;2.13;1.58;;;;;;;7.28;88.29;95097.38;6185652;28;20450;-71
2022/11/01 07:19:32;;;;;;;1.85;1.50;;;;;;;7.27;87.83;95103.53;6181482;28;20046;-73
2022/11/01 07:22:36;;;;;;;1.83;1.35;;;;;;;7.23;88.18;95089.03;6183858;28;20097;-73
2022/11/01 07:25:42;;;;;;;1.17;0.95;;;;;;;7.24;88.19;95098.53;6179219;28;20034;-72
2022/11/01 07:28:46;;;;;;;1.50;1.15;;;;;;;7.24;87.85;95085.47;6178668;28;20038;-72
2022/11/01 07:31:50;;;;;;;1.60;1.10;;;;;;;7.22;88.10;95076.91;6178334;28;20090;-72
2022/11/01 07:34:55;;;;;;;1.88;1.65;;;;;;;7.20;87.54;95080.47;6179340;28;20049;-72
2022/11/01 07:38:01;;;;;;;1.77;1.20;;;;;;;7.07;88.04;95064.09;6178067;28;20715;-72
2022/11/01 07:41:05;;;;;;;2.28;1.80;;;;;;;7.07;88.36;95064.09;6176135;28;20046;-73
2022/11/01 07:44:10;;;;;;;1.30;0.98;;;;;;;7.01;88.61;95054.13;6251844;28;20505;-71
2022/11/01 07:47:13;;;;;;;;;;;;;;;7.10;88.11;95048.16;6233265;28;20054;-71
2022/11/01 07:50:16;;;;;;;1.70;1.20;;;;;;;6.98;88.26;95049.16;6178908;28;19925;-72
2022/11/01 07:53:19;;;;;;;;;;;;;;;7.06;87.66;95046.75;6189819;28;20042;-71
2022/11/01 07:56:23;;;;;;;1.75;1.15;;;;;;;6.88;87.82;95048.22;6196831;28;19925;-72
2022/11/01 07:59:27;;;;;;;0.50;0.50;;;;;;;6.84;87.57;95042.41;6192504;28;20137;-72
2022/11/01 08:02:31;;;;;;;;;;;;;;;6.79;87.64;95052.38;6198841;28;20060;-71
2022/11/01 08:05:37;;;;;;;0.73;0.45;;;;;;;6.70;87.43;95027.81;6184474;28;20542;-72
2022/11/01 08:08:43;;;;;;;1.25;0.85;;;;;;;6.52;87.28;95027.47;6183691;28;20098;-70
2022/11/01 08:11:47;;;;;;;1.33;0.90;;;;;;;6.42;87.93;95020.47;6163479;28;20042;-72
2022/11/01 08:14:49;;;;;;;;;;;;;;;6.50;87.88;95012.88;6198090;28;20042;-70
2022/11/01 08:17:56;;;;;;;1.65;1.00;;;;;;;6.34;88.37;95005.41;6184355;28;19917;-71
2022/11/01 08:21:00;;;;;;;0.50;0.50;;;;;;;6.30;89.32;95007.41;6173232;28;20524;-71
2022/11/01 08:24:02;;;;;;;;;;;;;;;6.40;89.38;95001.50;6185942;28;20043;-71
2022/11/01 08:27:06;;;;;;;0.98;0.80;;;;;;;6.36;89.64;95015.72;6168663;28;19925;-71
2022/11/01 08:30:08;;;;;;;;;;;;;;;6.54;89.61;95024.75;6190732;28;20075;-70
2022/11/01 08:33:12;;;;;;;0.90;0.70;;;;;;;6.38;89.08;95016.44;6164766;28;19921;-70
2022/11/01 08:36:16;;;;;;;;;;;;;;;6.40;89.61;95022.41;6193977;28;20621;-71
2022/11/01 08:39:20;;;;;;;0.82;0.65;;;;;;;6.33;88.86;95010.75;6154663;28;19921;-76
2022/11/01 08:42:22;;;;;;;;;;;;;;;6.29;89.06;95013.59;6143746;28;20042;-75
2022/11/01 08:45:27;;;;;;;0.47;0.47;;;;;;;6.27;89.05;94997.19;6148753;28;19925;-75
2022/11/01 08:48:32;;;;;;;0.32;0.32;;;;;;;6.33;88.75;94987.22;6162386;28;20386;-77
2022/11/01 08:51:35;;;;;;;;;;;;;;;6.25;88.65;94972.97;6159826;28;20070;-76
2022/11/01 08:54:39;;;;;;;1.23;0.57;;;;;;;6.24;88.55;94966.09;6143932;28;20166;-78
2022/11/01 08:57:44;;;;;;;0.85;0.40;;;;;;;6.19;89.14;94964.81;6165407;28;20034;-77
2022/11/01 09:00:47;;;;;;;;;;;;;;;6.24;89.01;94960.88;6170318;28;20525;-70
2022/11/01 09:03:58;;;;;;;0.63;0.55;;;;;;;6.16;89.43;94947.59;6162890;28;20342;-72
2022/11/01 09:07:01;;;;;;;0.90;0.63;;;;;;;6.13;89.10;94942.59;6158004;28;20077;-72
2022/11/01 09:10:05;;;;;;;1.38;0.55;;;;;;;6.02;88.75;94937.38;6228913;28;20042;-71
2022/11/01 09:13:07;;;;;;;;;;;;;;;6.09;89.51;94935.97;6167747;28;20492;-71
2022/11/01 09:16:12;;;;;;;0.30;0.30;;;;;;;6.14;89.34;94940.81;6167598;28;19925;-72
2022/11/01 09:19:14;;;;;;;;;;;;;;;6.13;89.05;94937.38;6162882;28;20050;-71
2022/11/01 09:22:17;;;;;;;0.95;0.40;;;;;;;6.07;88.71;94927.44;6165688;28;19922;-72
2022/11/01 09:25:20;;;;;;;;;;;;;;;5.96;88.48;94924.81;6189178;28;20046;-72
2022/11/01 09:28:27;;;;;;;0.60;0.35;;;;;;;5.83;89.16;94898.78;6162328;28;19922;-73
2022/11/01 09:31:32;;;;;;;1.05;0.52;;;;;;;6.01;88.41;94907.84;6167200;28;20044;-72
2022/11/01 09:34:35;;;;;;;;;;;;;;;5.84;88.56;94909.13;6187103;28;20051;-72
2022/11/01 09:37:39;;;;;;;0.17;0.17;;;;;;;5.87;88.89;94899.41;6159852;28;19934;-73
2022/11/01 09:40:45;;;;;;;0.13;0.13;;;;;;;5.85;89.02;94895.13;6161861;28;20080;-70
2022/11/01 09:43:55;;;;;;;0.47;0.47;;;;;;;5.79;88.37;94877.34;6138176;28;20418;-71
2022/11/01 09:47:07;;;;;;;0.40;0.40;;;;;;;5.72;88.99;94889.22;6185332;28;20735;-71
2022/11/01 09:50:35;;;;;;;1.40;0.40;;;;;;;5.87;89.04;94876.75;6154173;28;20486;-72
2022/11/01 09:53:42;;;;;;;0.80;0.20;;;;;;;5.82;88.68;94866.66;6136865;28;20410;-70
2022/11/01 09:56:58;;;;;;;0.30;0.30;;;;;;;5.66;88.36;94847.09;6138330;28;21926;-69
2022/11/01 10:00:12;;;;;;;0.40;0.25;;;;;;;5.83;88.38;94851.81;6141421;28;20074;-72
2022/11/01 10:03:32;;;;;;;0.47;0.40;;;;;;;5.75;88.39;94854.22;6191460;28;20049;-72
2022/11/01 10:06:57;;;;;;;1.08;0.30;;;;;;;5.57;89.23;94848.63;6251297;28;20044;-73
2022/11/01 10:10:23;;;;;;;0.40;0.40;;;;;;;5.65;88.96;94837.59;6249238;28;20067;-72
2022/11/01 10:13:36;;;;;;;0.22;0.22;;;;;;;5.74;88.71;94839.50;6256332;28;20088;-73
2022/11/01 10:17:05;;;;;;;0.32;0.30;;;;;;;5.72;88.28;94834.41;6301346;28;20442;-73
2022/11/01 10:20:12;;;;;;;0.47;0.45;;;;;;;5.69;88.32;94836.41;6259829;28;20056;-75
2022/11/01 10:23:21;;;;;;;0.75;0.40;;;;;;;5.58;88.72;94826.84;6257643;28;20044;-74
2022/11/01 10:26:28;;;;;;;0.32;0.30;;;;;;;5.50;89.33;94829.19;6252173;28;20081;-73
2022/11/01 10:29:42;;;;;;;0.40;0.38;;;;;;;5.65;89.18;94829.78;6255131;28;20044;-76
2022/11/01 10:33:05;;;;;;;0.47;0.20;;;;;;;5.64;88.92;94821.13;6298042;28;20041;-73
2022/11/01 10:36:22;;;;;;;0.93;0.60;;;;;;;5.53;89.16;94821.13;6282795;28;20550;-73
2022/11/01 10:40:05;;;;;;;1.80;0.82;;;;;;;5.57;89.44;94819.94;6292242;28;20055;-72
2022/11/01 10:43:18;;;;;;;0.85;0.50;;;;;;;5.69;89.05;94808.56;6293347;28;20048;-73
2022/11/01 10:46:28;;;;;;;0.70;0.60;;;;;;;5.75;88.36;94807.25;6297427;28;20419;-73
2022/11/01 10:49:44;;;;;;;1.05;0.82;;;;;;;5.64;89.34;94810.69;6294627;28;20036;-73
2022/11/01 10:53:11;;;;;;;0.50;0.40;;;;;;;5.68;89.32;94813.88;6262568;28;20143;-72
2022/11/01 10:56:19;;;;;;;1.13;0.38;;;;;;;5.66;89.40;94803.56;6269220;28;20510;-72
2022/11/01 10:59:34;;;;;;;0.55;0.50;;;;;;;5.66;89.39;94795.72;6280254;28;20036;-72
2022/11/01 11:02:43;;;;;;;0.47;0.40;;;;;;;5.70;89.85;94778.06;6263310;28;20047;-72
2022/11/01 11:05:48;;;;;;;2.25;0.65;;;;;;;5.72;89.23;94808.31;6175083;28;20066;-72
2022/11/01 11:08:54;;;;;;;0.50;0.50;;;;;;;5.86;89.33;94788.97;6182030;28;20071;-72
2022/11/01 11:12:02;;;;;;;0.40;0.40;;;;;;;5.76;89.20;94773.19;6169463;28;20088;-74
2022/11/01 11:15:19;;;;;;;1.05;0.80;;;;;;;5.81;89.13;94786.72;6166341;28;20054;-74
2022/11/01 11:18:28;;;;;;;1.52;0.90;;;;;;;5.85;88.99;94788.09;6167536;28;20083;-70
2022/11/01 11:21:34;;;;;;;1.20;1.10;;;;;;;5.75;89.63;94792.41;6165842;28;20050;-63
2022/11/01 11:24:42;;;;;;;1.10;1.00;;;;;;;5.87;89.46;94781.97;6170790;28;20042;-63
2022/11/01 11:27:47;;;;;;;1.23;1.08;;;;;;;5.76;89.59;94788.03;6166027;28;20104;-68
2022/11/01 11:30:52;;;;;;;1.85;1.40;;;;;;;5.81;89.95;94771.03;6167050;28;20051;-66
2022/11/01 11:33:58;;;;;;;1.20;1.10;;;;;;;5.83;89.81;94783.97;6170866;28;20046;-66
2022/11/01 11:37:04;;;;;;;2.67;1.47;;;;;;;5.93;89.41;94784.06;6170436;28;20051;-67
2022/11/01 11:40:18;;;;;;;1.75;1.65;;;;;;;5.86;89.48;94770.69;6171729;28;20422;-67
2022/11/01 11:43:19;;;;;;;1.48;1.13;;;;;;;5.87;89.58;94774.13;6169756;28;20055;-69
2022/11/01 11:46:25;;;;;;;0.88;0.88;;;;;;;5.97;89.92;94765.47;6181897;28;20200;-68
2022/11/01 11:49:27;;;;;;;1.42;1.33;;;;;;;5.96;89.13;94757.75;6190286;28;20081;-67
2022/11/01 11:52:38;;;;;;;1.33;1.20;;;;;;;5.96;89.10;94742.09;6186228;28;20050;-69
2022/11/01 11:55:46;;;;;;;1.92;1.55;;;;;;;5.97;89.07;94755.03;6169814;28;20054;-66
2022/11/01 11:58:50;;;;;;;1.80;1.50;;;;;;;6.03;89.33;94751.94;6170400;28;20066;-67
2022/11/01 12:01:59;;;;;;;;;;;;;;;6.09;88.75;94753.22;6172872;28;20421;-68
2022/11/01 12:05:04;;;;;;;1.75;1.30;;;;;;;5.98;89.58;94748.84;6155376;28;20040;-68
2022/11/01 12:08:34;;;;;;;1.70;1.60;;;;;;;5.91;89.38;94765.91;6148062;28;20050;-67
2022/11/01 12:11:39;;;;;;;1.85;1.45;;;;;;;5.93;89.97;94771.03;6167108;28;20051;-67
2022/11/01 12:14:54;;;;;;;1.17;1.05;;;;;;;6.02;89.74;94752.03;6170207;28;20046;-68
2022/11/01 12:18:14;;;;;;;2.55;2.05;;;;;;;5.95;89.76;94767.38;6173128;28;20584;-68
2022/11/01 12:21:31;;;;;;;1.90;1.55;;;;;;;6.03;89.74;94753.72;6143919;28;20092;-68
2022/11/01 12:24:44;;;;;;;1.33;1.20;;;;;;;6.07;89.40;94770.78;6145591;28;20039;-67
2022/11/01 12:28:19;;;;;;;1.80;1.35;;;;;;;6.00;89.43;94780.03;6143256;28;20811;-68
2022/11/01 12:31:21;;;;;;;2.17;1.60;;;;;;;6.05;89.54;94770.06;6140352;28;20050;-68
2022/11/01 12:34:31;;;;;;;2.08;1.48;;;;;;;6.10;88.97;94775.75;6169353;28;20080;-68
2022/11/01 12:38:06;;;;;;;2.50;1.40;;;;;;;6.11;89.36;94780.00;6161938;28;20043;-68
2022/11/01 12:41:34;;;;;;;1.35;1.08;;;;;;;6.05;89.00;94797.00;6192959;28;20057;-68
2022/11/01 12:44:40;;;;;;;1.33;1.05;;;;;;;5.97;89.24;94775.06;6145242;28;20140;-68
2022/11/01 12:47:53;;;;;;;1.40;1.25;;;;;;;5.99;89.13;94783.59;6145382;29;20570;-68
2022/11/01 12:51:01;;;;;;;1.33;1.23;;;;;;;5.92;89.14;94783.25;6155865;28;20489;-67
2022/11/01 12:54:16;;;;;;;0.73;0.70;;;;;;;5.85;89.42;94801.16;6179866;28;20151;-68
2022/11/01 12:57:20;;;;;;;1.67;1.20;;;;;;;5.87;90.02;94781.97;6170032;28;20153;-69
2022/11/01 13:00:25;;;;;;;1.17;0.98;;;;;;;5.77;90.18;94781.84;6170418;28;20055;-69
2022/11/01 13:03:40;;;;;;;1.20;1.10;;;;;;;5.85;89.86;94782.06;6169154;28;20511;-67
2022/11/01 13:06:50;;;;;;;;;;;;;;;5.93;89.83;94781.47;6168718;28;20058;-68
2022/11/01 13:10:01;;;;;;;1.90;0.90;;;;;;;5.88;89.55;94781.00;6159306;28;20400;-69
2022/11/01 13:13:23;;;;;;;1.10;0.82;;;;;;;5.74;89.94;94790.75;6141818;28;20062;-67
2022/11/01 13:16:35;;;;;;;2.35;1.00;;;;;;;5.70;90.02;94797.16;6139843;28;20784;-68
2022/11/01 13:19:51;;;;;;;1.05;0.90;;;;;;;5.78;90.30;94794.78;6132663;28;20043;-68
2022/11/01 13:23:28;;;;;;;2.47;0.73;;;;;;;5.81;90.05;94791.94;6140508;28;20841;-69
2022/11/01 13:26:41;;;;;;;1.10;1.00;;;;;;;5.84;89.63;94791.69;6127993;28;20501;-69
2022/11/01 13:29:55;;;;;;;1.38;0.90;;;;;;;5.83;89.96;94794.41;6143163;28;20043;-68
2022/11/01 13:33:27;;;;;;;1.20;1.10;;;;;;;5.86;89.48;94791.56;6145726;28;20097;-68
2022/11/01 13:36:52;;;;;;;0.98;0.80;;;;;;;5.85;90.09;94788.09;6145821;28;20214;-67
2022/11/01 13:40:21;;;;;;;0.50;0.50;;;;;;;5.78;89.47;94786.94;6172278;28;20038;-71
2022/11/01 13:43:33;;;;;;;0.60;0.60;;;;;;;5.56;89.77;94786.97;6176560;28;20120;-70
2022/11/01 13:47:13;;;;;;;0.82;0.60;;;;;;;5.62;90.05;94791.72;6174463;28;20046;-70
2022/11/01 13:50:27;;;;;;;0.35;0.35;;;;;;;5.64;89.96;94779.38;6172383;28;20137;-72
2022/11/01 13:53:34;;;;;;;;;;;;;;;5.64;89.65;94795.03;6154703;28;20204;-71
2022/11/01 13:56:52;;;;;;;0.77;0.77;;;;;;;5.62;89.62;94789.09;6166424;28;19923;-69
2022/11/01 14:00:04;;;;;;;1.02;0.77;;;;;;;5.58;90.57;94780.69;6148424;29;20154;-71
2022/11/01 14:03:22;;;;;;;1.20;0.80;;;;;;;5.66;90.56;94793.13;6232149;28;20052;-71
2022/11/01 14:06:35;;;;;;;0.98;0.90;;;;;;;5.71;89.89;94790.16;6281673;28;21783;-73
2022/11/01 14:09:46;;;;;;;1.02;0.60;;;;;;;5.74;88.70;94806.41;6275767;28;20048;-71
2022/11/01 14:13:06;;;;;;;0.52;0.28;;;;;;;5.51;88.39;94794.34;6266812;28;20512;-73
2022/11/01 14:16:18;;;;;;;0.40;0.40;;;;;;;5.45;88.12;94795.63;6267694;28;20052;-72
2022/11/01 14:19:23;;;;;;;0.77;0.30;;;;;;;5.39;88.55;94796.13;6265368;28;20044;-73
2022/11/01 14:22:32;;;;;;;0.55;0.30;;;;;;;5.29;88.97;94793.38;6270779;28;20131;-73
2022/11/01 14:25:35;;;;;;;0.57;0.40;;;;;;;5.17;89.00;94783.91;6267244;28;20053;-73
2022/11/01 14:28:44;;;;;;;0.30;0.30;;;;;;;5.32;88.34;94787.94;6268016;28;20529;-72
2022/11/01 14:31:52;;;;;;;0.70;0.50;;;;;;;5.26;88.80;94785.78;6268391;28;20037;-75
2022/11/01 14:35:04;;;;;;;0.30;0.30;;;;;;;5.32;88.55;94792.31;6267030;28;20384;-71
2022/11/01 14:38:17;;;;;;;0.90;0.47;;;;;;;5.35;88.14;94795.53;6273627;28;20044;-71
2022/11/01 14:41:20;;;;;;;0.65;0.38;;;;;;;5.25;88.70;94791.97;6268804;28;20791;-71
2022/11/01 14:44:35;;;;;;;0.32;0.32;;;;;;;5.33;88.76;94792.22;6265736;28;20620;-73
2022/11/01 14:47:42;;;;;;;0.63;0.50;;;;;;;5.21;88.19;94803.59;6264464;28;20097;-71
2022/11/01 14:51:08;;;;;;;0.30;0.30;;;;;;;5.27;87.75;94800.50;6265500;28;20033;-74
2022/11/01 14:54:41;;;;;;;0.30;0.30;;;;;;;5.11;88.02;94813.06;6283594;28;20056;-74
2022/11/01 14:57:47;;;;;;;1.15;0.40;;;;;;;4.95;88.28;94793.38;6300832;28;20048;-75
2022/11/01 15:00:53;;;;;;;0.47;0.40;;;;;;;4.92;88.99;94795.38;6296748;28;20053;-77
2022/11/01 15:03:58;;;;;;;0.55;0.45;;;;;;;4.83;89.49;94786.47;6215029;28;20510;-74
2022/11/01 15:07:16;;;;;;;1.35;0.50;;;;;;;4.93;89.06;94790.06;6182200;28;20050;-70
2022/11/01 15:10:23;;;;;;;0.47;0.45;;;;;;;4.93;88.57;94797.88;6174767;28;21961;-70
2022/11/01 15:13:27;;;;;;;0.30;0.30;;;;;;;4.78;87.95;94791.19;6176712;28;20197;-70
2022/11/01 15:16:40;;;;;;;0.75;0.30;;;;;;;4.70;87.68;94793.56;6186729;28;20040;-71
2022/11/01 15:19:44;;;;;;;1.02;0.40;;;;;;;4.67;88.30;94780.75;6176280;28;20139;-72